createdAt,value
2018-03-15T00:00:15.493Z,3.25
2018-03-15T00:01:15.210Z,3.27
2018-03-15T00:02:15.443Z,3.24
2018-03-15T00:03:15.464Z,3.31
2018-03-15T00:04:15.402Z,3.31
2018-03-15T00:05:15.116Z,3.28
2018-03-15T00:06:15.091Z,3.24
2018-03-15T00:07:14.809Z,3.27
2018-03-15T00:08:14.783Z,3.18
2018-03-15T00:09:14.760Z,3.2
2018-03-15T00:10:15.002Z,3.16
2018-03-15T00:11:15.252Z,3.16
2018-03-15T00:12:14.697Z,3.2
2018-03-15T00:13:15.211Z,3.13
2018-03-15T00:14:15.181Z,3.13
2018-03-15T00:15:14.897Z,3.13
2018-03-15T00:16:14.605Z,3.13
2018-03-15T00:17:14.853Z,3.15
2018-03-15T00:18:15.106Z,3.16
2018-03-15T00:19:14.544Z,3.06
2018-03-15T00:20:15.061Z,3.09
2018-03-15T00:21:14.797Z,3.05
2018-03-15T00:22:14.844Z,3.07
2018-03-15T00:23:14.503Z,3.06
2018-03-15T00:24:14.966Z,3.02
2018-03-15T00:25:14.940Z,3.05
2018-03-15T00:26:14.971Z,3.12
2018-03-15T00:27:14.628Z,2.98
2018-03-15T00:28:14.875Z,3.06
2018-03-15T00:29:14.586Z,3
2018-03-15T00:30:14.297Z,2.97
2018-03-15T00:31:14.812Z,2.95
2018-03-15T00:32:14.523Z,2.98
2018-03-15T00:33:14.767Z,2.97
2018-03-15T00:34:14.790Z,3.06
2018-03-15T00:35:14.456Z,3.03
2018-03-15T00:36:14.707Z,2.97
2018-03-15T00:37:14.143Z,3.06
2018-03-15T00:38:14.388Z,3.03
2018-03-15T00:39:14.096Z,2.95
2018-03-15T00:40:14.610Z,2.95
2018-03-15T00:41:14.321Z,3.05
2018-03-15T00:42:14.293Z,3.02
2018-03-15T00:43:14.013Z,3
2018-03-15T00:44:14.262Z,3.07
2018-03-15T00:45:14.233Z,3
2018-03-15T00:46:13.946Z,2.87
2018-03-15T00:47:14.189Z,2.98
2018-03-15T00:48:14.171Z,3
2018-03-15T00:49:14.412Z,3
2018-03-15T00:50:14.119Z,2.97
2018-03-15T00:51:14.363Z,3
2018-03-15T00:52:14.074Z,2.97
2018-03-15T00:53:14.323Z,2.95
2018-03-15T00:54:14.297Z,2.98
2018-03-15T00:55:14.275Z,2.89
2018-03-15T00:56:13.721Z,2.92
2018-03-15T00:57:13.964Z,2.95
2018-03-15T00:58:14.210Z,2.94
2018-03-15T00:59:14.218Z,2.97
2018-03-15T01:00:14.169Z,2.98
2018-03-15T01:01:14.158Z,2.89
2018-03-15T01:02:14.124Z,2.92
2018-03-15T01:03:13.834Z,2.91
2018-03-15T01:04:13.547Z,2.94
2018-03-15T01:05:13.792Z,2.92
2018-03-15T01:06:13.498Z,2.85
2018-03-15T01:07:14.010Z,2.82
2018-03-15T01:08:13.985Z,2.79
2018-03-15T01:09:13.702Z,2.76
2018-03-15T01:10:13.678Z,2.79
2018-03-15T01:11:13.921Z,2.77
2018-03-15T01:12:13.632Z,2.79
2018-03-15T01:13:13.345Z,2.73
2018-03-15T01:14:13.592Z,2.76
2018-03-15T01:15:13.301Z,2.77
2018-03-15T01:16:13.283Z,2.74
2018-03-15T01:17:13.523Z,2.76
2018-03-15T01:18:13.233Z,2.77
2018-03-15T01:19:13.477Z,2.87
2018-03-15T01:20:13.189Z,2.84
2018-03-15T01:21:13.165Z,2.84
2018-03-15T01:22:13.143Z,2.77
2018-03-15T01:23:13.654Z,2.76
2018-03-15T01:24:13.369Z,2.84
2018-03-15T01:25:13.612Z,2.74
2018-03-15T01:26:13.058Z,2.74
2018-03-15T01:27:13.039Z,2.67
2018-03-15T01:28:13.269Z,2.79
2018-03-15T01:29:13.255Z,2.81
2018-03-15T01:30:13.228Z,2.71
2018-03-15T01:31:12.950Z,2.73
2018-03-15T01:32:12.921Z,2.69
2018-03-15T01:33:13.161Z,2.74
2018-03-15T01:34:13.199Z,2.73
2018-03-15T01:35:13.124Z,2.67
2018-03-15T01:36:13.359Z,2.74
2018-03-15T01:37:13.073Z,2.67
2018-03-15T01:38:13.049Z,2.77
2018-03-15T01:39:13.024Z,2.73
2018-03-15T01:40:12.742Z,2.73
2018-03-15T01:41:12.988Z,2.73
2018-03-15T01:42:12.695Z,2.74
2018-03-15T01:43:13.203Z,2.81
2018-03-15T01:44:13.182Z,2.63
2018-03-15T01:45:12.626Z,2.63
2018-03-15T01:46:13.070Z,2.61
2018-03-15T01:47:12.590Z,2.64
2018-03-15T01:48:12.566Z,2.66
2018-03-15T01:49:12.802Z,2.66
2018-03-15T01:50:12.783Z,2.61
2018-03-15T01:51:12.756Z,2.61
2018-03-15T01:52:12.736Z,2.55
2018-03-15T01:53:12.721Z,2.55
2018-03-15T01:54:12.958Z,2.59
2018-03-15T01:55:12.935Z,2.49
2018-03-15T01:56:12.645Z,2.63
2018-03-15T01:57:12.631Z,2.56
2018-03-15T01:58:12.335Z,2.56
2018-03-15T01:59:12.582Z,2.51
2018-03-15T02:00:12.288Z,2.59
2018-03-15T02:01:12.271Z,2.53
2018-03-15T02:02:12.785Z,2.61
2018-03-15T02:03:12.763Z,2.59
2018-03-15T02:04:12.511Z,2.53
2018-03-15T02:05:12.472Z,2.52
2018-03-15T02:06:12.152Z,2.61
2018-03-15T02:07:12.459Z,2.58
2018-03-15T02:08:12.110Z,2.56
2018-03-15T02:09:12.423Z,2.59
2018-03-15T02:10:12.328Z,2.63
2018-03-15T02:11:12.317Z,2.61
2018-03-15T02:12:12.547Z,2.63
2018-03-15T02:13:12.279Z,2.59
2018-03-15T02:14:12.508Z,2.63
2018-03-15T02:15:12.218Z,2.63
2018-03-15T02:16:12.192Z,2.61
2018-03-15T02:17:12.492Z,2.67
2018-03-15T02:18:12.154Z,2.69
2018-03-15T02:19:12.394Z,2.56
2018-03-15T02:20:12.441Z,2.63
2018-03-15T02:21:11.816Z,2.63
2018-03-15T02:22:11.797Z,2.63
2018-03-15T02:23:12.303Z,2.63
2018-03-15T02:24:12.278Z,2.64
2018-03-15T02:25:12.027Z,2.61
2018-03-15T02:26:11.964Z,2.61
2018-03-15T02:27:11.682Z,2.61
2018-03-15T02:28:11.921Z,2.7
2018-03-15T02:29:12.169Z,2.59
2018-03-15T02:30:11.608Z,2.52
2018-03-15T02:31:11.856Z,2.53
2018-03-15T02:32:11.843Z,2.53
2018-03-15T02:33:11.815Z,2.52
2018-03-15T02:34:11.798Z,2.53
2018-03-15T02:35:11.499Z,2.58
2018-03-15T02:36:11.746Z,2.49
2018-03-15T02:37:11.721Z,2.56
2018-03-15T02:38:11.696Z,2.56
2018-03-15T02:39:11.745Z,2.59
2018-03-15T02:40:11.665Z,2.52
2018-03-15T02:41:11.671Z,2.53
2018-03-15T02:42:11.874Z,2.53
2018-03-15T02:43:11.856Z,2.55
2018-03-15T02:44:11.295Z,2.58
2018-03-15T02:45:11.823Z,2.61
2018-03-15T02:46:11.789Z,2.56
2018-03-15T02:47:11.776Z,2.59
2018-03-15T02:48:11.215Z,2.58
2018-03-15T02:49:11.721Z,2.66
2018-03-15T02:50:11.422Z,2.63
2018-03-15T02:51:11.680Z,2.7
2018-03-15T02:52:11.386Z,2.64
2018-03-15T02:53:11.633Z,2.64
2018-03-15T02:54:11.357Z,2.64
2018-03-15T02:55:11.310Z,2.69
2018-03-15T02:56:11.025Z,2.74
2018-03-15T02:57:11.272Z,2.64
2018-03-15T02:58:11.260Z,2.7
2018-03-15T02:59:11.494Z,2.58
2018-03-15T03:00:11.198Z,2.61
2018-03-15T03:01:10.915Z,2.7
2018-03-15T03:02:10.889Z,2.59
2018-03-15T03:03:10.907Z,2.66
2018-03-15T03:04:11.106Z,2.58
2018-03-15T03:05:11.080Z,2.59
2018-03-15T03:06:11.064Z,2.58
2018-03-15T03:07:10.774Z,2.58
2018-03-15T03:08:11.014Z,2.63
2018-03-15T03:09:10.734Z,2.58
2018-03-15T03:10:11.234Z,2.56
2018-03-15T03:11:10.944Z,2.58
2018-03-15T03:12:11.192Z,2.69
2018-03-15T03:13:11.179Z,2.63
2018-03-15T03:14:10.878Z,2.63
2018-03-15T03:15:10.865Z,2.61
2018-03-15T03:16:10.840Z,2.63
2018-03-15T03:17:10.544Z,2.69
2018-03-15T03:18:10.790Z,2.56
2018-03-15T03:19:11.033Z,2.64
2018-03-15T03:20:11.013Z,2.67
2018-03-15T03:21:10.454Z,2.63
2018-03-15T03:22:10.700Z,2.61
2018-03-15T03:23:10.946Z,2.61
2018-03-15T03:24:10.649Z,2.64
2018-03-15T03:25:10.890Z,2.56
2018-03-15T03:26:10.610Z,2.59
2018-03-15T03:27:10.845Z,2.58
2018-03-15T03:28:10.848Z,2.49
2018-03-15T03:29:10.804Z,2.58
2018-03-15T03:30:10.785Z,2.56
2018-03-15T03:31:10.237Z,2.63
2018-03-15T03:32:10.479Z,2.63
2018-03-15T03:33:10.723Z,2.61
2018-03-15T03:34:10.692Z,2.59
2018-03-15T03:35:10.401Z,2.59
2018-03-15T03:36:10.378Z,2.58
2018-03-15T03:37:10.361Z,2.58
2018-03-15T03:38:10.334Z,2.52
2018-03-15T03:39:10.314Z,2.58
2018-03-15T03:40:10.552Z,2.58
2018-03-15T03:41:10.271Z,2.58
2018-03-15T03:42:10.241Z,2.49
2018-03-15T03:43:09.959Z,2.56
2018-03-15T03:44:10.458Z,2.53
2018-03-15T03:45:10.447Z,2.55
2018-03-15T03:46:10.353Z,2.53
2018-03-15T03:47:10.389Z,2.53
2018-03-15T03:48:10.107Z,2.56
2018-03-15T03:49:10.083Z,2.56
2018-03-15T03:50:10.064Z,2.56
2018-03-15T03:51:09.771Z,2.52
2018-03-15T03:52:10.034Z,2.56
2018-03-15T03:53:09.727Z,2.48
2018-03-15T03:54:10.239Z,2.55
2018-03-15T03:55:10.222Z,2.55
2018-03-15T03:56:09.664Z,2.56
2018-03-15T03:57:09.634Z,2.53
2018-03-15T03:58:09.876Z,2.49
2018-03-15T03:59:09.590Z,2.53
2018-03-15T04:00:09.835Z,2.58
2018-03-15T04:01:09.811Z,2.53
2018-03-15T04:02:09.522Z,2.58
2018-03-15T04:03:09.495Z,2.52
2018-03-15T04:04:09.742Z,2.48
2018-03-15T04:05:09.990Z,2.55
2018-03-15T04:06:09.693Z,2.49
2018-03-15T04:07:09.940Z,2.58
2018-03-15T04:08:09.650Z,2.58
2018-03-15T04:09:09.630Z,2.55
2018-03-15T04:10:09.342Z,2.63
2018-03-15T04:11:09.314Z,2.56
2018-03-15T04:12:09.821Z,2.55
2018-03-15T04:13:09.542Z,2.59
2018-03-15T04:14:09.249Z,2.58
2018-03-15T04:15:09.493Z,2.52
2018-03-15T04:16:09.466Z,2.56
2018-03-15T04:17:09.442Z,2.63
2018-03-15T04:18:09.158Z,2.58
2018-03-15T04:19:09.683Z,2.58
2018-03-15T04:20:09.637Z,2.58
2018-03-15T04:21:09.352Z,2.48
2018-03-15T04:22:09.599Z,2.46
2018-03-15T04:23:09.362Z,2.45
2018-03-15T04:24:09.553Z,2.4
2018-03-15T04:25:08.998Z,2.31
2018-03-15T04:26:08.971Z,2.34
2018-03-15T04:27:09.220Z,2.38
2018-03-15T04:28:09.189Z,2.3
2018-03-15T04:29:08.908Z,2.33
2018-03-15T04:30:09.152Z,2.33
2018-03-15T04:31:09.124Z,2.27
2018-03-15T04:32:09.367Z,2.38
2018-03-15T04:33:09.352Z,2.34
2018-03-15T04:34:08.791Z,2.31
2018-03-15T04:35:09.306Z,2.35
2018-03-15T04:36:09.010Z,2.4
2018-03-15T04:37:08.990Z,2.38
2018-03-15T04:38:09.250Z,2.35
2018-03-15T04:39:08.683Z,2.33
2018-03-15T04:40:09.196Z,2.3
2018-03-15T04:41:09.171Z,2.26
2018-03-15T04:42:08.873Z,2.26
2018-03-15T04:43:08.584Z,2.28
2018-03-15T04:44:09.091Z,2.33
2018-03-15T04:45:08.543Z,2.22
2018-03-15T04:46:08.782Z,2.26
2018-03-15T04:47:08.494Z,2.2
2018-03-15T04:48:09.005Z,2.3
2018-03-15T04:49:08.985Z,2.28
2018-03-15T04:50:08.698Z,2.33
2018-03-15T04:51:08.667Z,2.28
2018-03-15T04:52:08.921Z,2.26
2018-03-15T04:53:08.624Z,2.31
2018-03-15T04:54:08.597Z,2.28
2018-03-15T04:55:08.846Z,2.33
2018-03-15T04:56:08.550Z,2.33
2018-03-15T04:57:08.567Z,2.33
2018-03-15T04:58:08.506Z,2.26
2018-03-15T04:59:08.748Z,2.33
2018-03-15T05:00:08.458Z,2.33
2018-03-15T05:01:08.719Z,2.28
2018-03-15T05:02:08.414Z,2.28
2018-03-15T05:03:08.393Z,2.35
2018-03-15T05:04:08.640Z,2.33
2018-03-15T05:05:08.617Z,2.34
2018-03-15T05:06:08.060Z,2.27
2018-03-15T05:07:08.297Z,2.28
2018-03-15T05:08:08.279Z,2.31
2018-03-15T05:09:07.993Z,2.31
2018-03-15T05:10:07.966Z,2.4
2018-03-15T05:11:08.556Z,2.34
2018-03-15T05:12:08.189Z,2.35
2018-03-15T05:13:07.904Z,2.49
2018-03-15T05:14:08.154Z,2.46
2018-03-15T05:15:07.872Z,2.52
2018-03-15T05:16:07.833Z,2.51
2018-03-15T05:17:08.073Z,2.46
2018-03-15T05:18:08.311Z,2.59
2018-03-15T05:19:08.028Z,2.59
2018-03-15T05:20:08.006Z,2.53
2018-03-15T05:21:07.983Z,2.48
2018-03-15T05:22:07.972Z,2.58
2018-03-15T05:23:07.675Z,2.51
2018-03-15T05:24:07.916Z,2.58
2018-03-15T05:25:07.941Z,2.61
2018-03-15T05:26:07.864Z,2.61
2018-03-15T05:27:07.844Z,2.59
2018-03-15T05:28:07.824Z,2.61
2018-03-15T05:29:08.074Z,2.67
2018-03-15T05:30:07.508Z,2.7
2018-03-15T05:31:07.788Z,2.71
2018-03-15T05:32:07.729Z,2.67
2018-03-15T05:33:07.973Z,2.77
2018-03-15T05:34:07.955Z,2.74
2018-03-15T05:35:07.982Z,2.74
2018-03-15T05:36:07.373Z,2.7
2018-03-15T05:37:07.616Z,2.74
2018-03-15T05:38:07.587Z,2.77
2018-03-15T05:39:07.571Z,2.73
2018-03-15T05:40:07.543Z,2.71
2018-03-15T05:41:07.805Z,2.74
2018-03-15T05:42:07.235Z,2.73
2018-03-15T05:43:07.481Z,2.74
2018-03-15T05:44:07.457Z,2.81
2018-03-15T05:45:07.166Z,2.73
2018-03-15T05:46:07.551Z,2.76
2018-03-15T05:47:07.651Z,2.71
2018-03-15T05:48:07.364Z,2.71
2018-03-15T05:49:07.341Z,2.79
2018-03-15T05:50:07.318Z,2.74
2018-03-15T05:51:07.297Z,2.66
2018-03-15T05:52:07.285Z,2.67
2018-03-15T05:53:06.983Z,2.74
2018-03-15T05:54:07.233Z,2.76
2018-03-15T05:55:07.202Z,2.71
2018-03-15T05:56:07.178Z,2.79
2018-03-15T05:57:07.422Z,2.77
2018-03-15T05:58:07.177Z,2.73
2018-03-15T05:59:07.140Z,2.71
2018-03-15T06:00:06.834Z,2.77
2018-03-15T06:01:07.341Z,2.84
2018-03-15T06:02:06.782Z,2.76
2018-03-15T06:03:07.027Z,2.73
2018-03-15T06:04:07.268Z,2.79
2018-03-15T06:05:06.976Z,2.76
2018-03-15T06:06:07.215Z,2.73
2018-03-15T06:07:06.927Z,2.82
2018-03-15T06:08:07.170Z,2.76
2018-03-15T06:09:06.879Z,2.84
2018-03-15T06:10:06.595Z,2.91
2018-03-15T06:11:06.573Z,2.92
2018-03-15T06:12:06.816Z,2.92
2018-03-15T06:13:06.789Z,2.95
2018-03-15T06:14:06.768Z,2.94
2018-03-15T06:15:06.482Z,2.95
2018-03-15T06:16:06.723Z,2.87
2018-03-15T06:17:06.700Z,3.02
2018-03-15T06:18:06.671Z,3.09
2018-03-15T06:19:06.656Z,2.95
2018-03-15T06:20:06.894Z,2.95
2018-03-15T06:21:06.607Z,3.13
2018-03-15T06:22:06.592Z,3.13
2018-03-15T06:23:06.831Z,3.07
2018-03-15T06:24:06.536Z,3.12
2018-03-15T06:25:06.793Z,3.13
2018-03-15T06:26:06.499Z,3.2
2018-03-15T06:27:06.737Z,3.18
2018-03-15T06:28:06.452Z,3.18
2018-03-15T06:29:06.162Z,3.15
2018-03-15T06:30:06.411Z,3.18
2018-03-15T06:31:06.386Z,3.15
2018-03-15T06:32:06.627Z,3.23
2018-03-15T06:33:06.342Z,3.28
2018-03-15T06:34:06.356Z,3.24
2018-03-15T06:35:06.032Z,3.24
2018-03-15T06:36:06.275Z,3.21
2018-03-15T06:37:05.986Z,3.3
2018-03-15T06:38:06.227Z,3.39
2018-03-15T06:39:06.204Z,3.43
2018-03-15T06:40:05.954Z,3.4
2018-03-15T06:41:06.165Z,3.49
2018-03-15T06:42:06.133Z,3.44
2018-03-15T06:43:06.381Z,3.49
2018-03-15T06:44:06.098Z,3.46
2018-03-15T06:45:06.333Z,3.49
2018-03-15T06:46:05.780Z,3.57
2018-03-15T06:47:05.757Z,3.64
2018-03-15T06:48:06.271Z,3.6
2018-03-15T06:49:05.722Z,3.61
2018-03-15T06:50:06.227Z,3.61
2018-03-15T06:51:06.270Z,3.64
2018-03-15T06:52:05.917Z,3.71
2018-03-15T06:53:05.884Z,3.75
2018-03-15T06:54:05.872Z,3.75
2018-03-15T06:55:05.856Z,3.72
2018-03-15T06:56:05.826Z,3.76
2018-03-15T06:57:05.810Z,3.79
2018-03-15T06:58:05.780Z,3.83
2018-03-15T06:59:05.756Z,3.86
2018-03-15T07:00:06.004Z,3.85
2018-03-15T07:01:05.990Z,3.94
2018-03-15T07:02:05.430Z,3.97
2018-03-15T07:03:05.673Z,4
2018-03-15T07:04:05.651Z,4.03
2018-03-15T07:05:05.363Z,4.04
2018-03-15T07:06:05.605Z,4.04
2018-03-15T07:07:05.595Z,4.06
2018-03-15T07:08:05.559Z,4.1
2018-03-15T07:09:05.271Z,4.04
2018-03-15T07:10:05.254Z,4.14
2018-03-15T07:11:05.492Z,4.22
2018-03-15T07:12:05.740Z,4.22
2018-03-15T07:13:05.718Z,4.26
2018-03-15T07:14:05.433Z,4.22
2018-03-15T07:15:05.407Z,4.36
2018-03-15T07:16:05.124Z,4.39
2018-03-15T07:17:05.632Z,4.42
2018-03-15T07:18:05.088Z,4.42
2018-03-15T07:19:05.326Z,4.47
2018-03-15T07:20:05.564Z,4.57
2018-03-15T07:21:05.284Z,4.59
2018-03-15T07:22:04.996Z,4.58
2018-03-15T07:23:05.239Z,4.62
2018-03-15T07:24:05.217Z,4.72
2018-03-15T07:25:05.199Z,4.76
2018-03-15T07:26:05.187Z,4.73
2018-03-15T07:27:04.885Z,4.75
2018-03-15T07:28:05.398Z,4.89
2018-03-15T07:29:05.123Z,4.86
2018-03-15T07:30:05.092Z,4.91
2018-03-15T07:31:05.063Z,4.96
2018-03-15T07:32:05.316Z,4.96
2018-03-15T07:33:05.023Z,5.1
2018-03-15T07:34:04.737Z,5.1
2018-03-15T07:35:05.250Z,5.14
2018-03-15T07:36:05.229Z,5.22
2018-03-15T07:37:04.950Z,5.13
2018-03-15T07:38:04.656Z,5.28
2018-03-15T07:39:04.895Z,5.35
2018-03-15T07:40:04.617Z,5.31
2018-03-15T07:41:04.862Z,5.48
2018-03-15T07:42:04.843Z,5.46
2018-03-15T07:43:04.550Z,5.49
2018-03-15T07:44:05.065Z,5.49
2018-03-15T07:45:04.508Z,5.59
2018-03-15T07:46:04.491Z,5.6
2018-03-15T07:47:04.466Z,5.57
2018-03-15T07:48:04.707Z,5.66
2018-03-15T07:49:04.694Z,5.59
2018-03-15T07:50:04.406Z,5.75
2018-03-15T07:51:04.659Z,5.66
2018-03-15T07:52:04.365Z,5.64
2018-03-15T07:53:04.608Z,5.7
2018-03-15T07:54:04.598Z,5.81
2018-03-15T07:55:04.307Z,5.71
2018-03-15T07:56:04.624Z,5.78
2018-03-15T07:57:04.263Z,5.88
2018-03-15T07:58:04.779Z,5.85
2018-03-15T07:59:04.221Z,5.92
2018-03-15T08:00:04.732Z,5.92
2018-03-15T08:01:04.481Z,5.98
2018-03-15T08:02:04.835Z,5.96
2018-03-15T08:03:04.143Z,6.04
2018-03-15T08:04:04.120Z,6.07
2018-03-15T08:05:04.368Z,6.03
2018-03-15T08:06:04.346Z,6.1
2018-03-15T08:07:04.327Z,6.1
2018-03-15T08:08:04.580Z,6.18
2018-03-15T08:09:04.027Z,6.22
2018-03-15T08:10:04.004Z,6.29
2018-03-15T08:11:04.035Z,6.3
2018-03-15T08:12:04.490Z,6.28
2018-03-15T08:13:04.209Z,6.26
2018-03-15T08:14:03.924Z,6.33
2018-03-15T08:15:04.433Z,6.32
2018-03-15T08:16:04.417Z,6.46
2018-03-15T08:17:04.393Z,6.51
2018-03-15T08:18:04.373Z,6.61
2018-03-15T08:19:03.826Z,6.58
2018-03-15T08:20:04.359Z,6.63
2018-03-15T08:21:04.100Z,6.63
2018-03-15T08:22:04.052Z,6.66
2018-03-15T08:23:04.010Z,6.77
2018-03-15T08:24:04.033Z,6.91
2018-03-15T08:25:03.984Z,7.26
2018-03-15T08:26:04.252Z,8.15
2018-03-15T08:27:03.933Z,8.9
2018-03-15T08:28:03.923Z,9.66
2018-03-15T08:29:03.898Z,10.22
2018-03-15T08:30:03.948Z,10.71
2018-03-15T08:31:03.602Z,11.06
2018-03-15T08:32:04.118Z,11.24
2018-03-15T08:33:04.097Z,11.31
2018-03-15T08:34:03.617Z,11.39
2018-03-15T08:35:03.813Z,11.53
2018-03-15T08:36:04.065Z,11.96
2018-03-15T08:37:03.508Z,12.21
2018-03-15T08:38:04.021Z,12.41
2018-03-15T08:39:03.741Z,12.59
2018-03-15T08:40:03.731Z,12.7
2018-03-15T08:41:03.755Z,12.92
2018-03-15T08:42:03.696Z,13.11
2018-03-15T08:43:03.677Z,13.25
2018-03-15T08:44:03.666Z,13.17
2018-03-15T08:45:03.655Z,13.32
2018-03-15T08:46:03.901Z,13.58
2018-03-15T08:47:03.621Z,13.76
2018-03-15T08:48:03.609Z,13.8
2018-03-15T08:49:03.868Z,13.32
2018-03-15T08:50:03.321Z,13.25
2018-03-15T08:51:03.836Z,13.21
2018-03-15T08:52:03.563Z,13.09
2018-03-15T08:53:03.545Z,13.2
2018-03-15T08:54:03.809Z,13.44
2018-03-15T08:55:03.528Z,13.71
2018-03-15T08:56:03.244Z,13.58
2018-03-15T08:57:03.519Z,13.61
2018-03-15T08:58:03.750Z,13.65
2018-03-15T08:59:03.481Z,13.58
2018-03-15T09:00:03.471Z,13.81
2018-03-15T09:01:03.719Z,14.21
2018-03-15T09:02:03.453Z,14.47
2018-03-15T09:03:03.695Z,14.2
2018-03-15T09:04:03.428Z,13.89
2018-03-15T09:05:03.149Z,14.17
2018-03-15T09:06:03.482Z,14.29
2018-03-15T09:07:03.391Z,14.49
2018-03-15T09:08:03.531Z,14.54
2018-03-15T09:09:03.104Z,14.34
2018-03-15T09:10:03.361Z,14.32
2018-03-15T09:11:03.696Z,14.25
2018-03-15T09:12:03.610Z,14.25
2018-03-15T09:13:03.337Z,14.43
2018-03-15T09:14:03.319Z,14.46
2018-03-15T09:15:03.314Z,14.28
2018-03-15T09:16:03.563Z,13.8
2018-03-15T09:17:03.032Z,13.3
2018-03-15T09:18:03.010Z,13
2018-03-15T09:19:03.300Z,13.21
2018-03-15T09:20:03.254Z,13.56
2018-03-15T09:21:03.509Z,13.83
2018-03-15T09:22:03.503Z,14.19
2018-03-15T09:23:03.227Z,14.47
2018-03-15T09:24:03.213Z,14.53
2018-03-15T09:25:03.466Z,14.54
2018-03-15T09:26:03.193Z,14.62
2018-03-15T09:27:03.453Z,14.88
2018-03-15T09:28:03.168Z,15.23
2018-03-15T09:29:03.478Z,15.35
2018-03-15T09:30:03.436Z,15.66
2018-03-15T09:31:03.228Z,15.6
2018-03-15T09:32:03.143Z,15.64
2018-03-15T09:33:03.135Z,15.67
2018-03-15T09:34:03.401Z,15.6
2018-03-15T09:35:04.022Z,15.46
2018-03-15T09:36:03.110Z,15.42
2018-03-15T09:37:02.817Z,15.26
2018-03-15T09:38:03.393Z,14.88
2018-03-15T09:39:03.076Z,14.35
2018-03-15T09:40:03.351Z,13.81
2018-03-15T09:41:03.366Z,13.56
2018-03-15T09:42:03.061Z,13.21
2018-03-15T09:43:03.938Z,13.06
2018-03-15T09:44:03.025Z,12.93
2018-03-15T09:45:03.023Z,12.89
2018-03-15T09:46:03.308Z,12.97
2018-03-15T09:47:03.210Z,12.89
2018-03-15T09:48:02.982Z,12.92
2018-03-15T09:49:02.974Z,12.92
2018-03-15T09:50:02.953Z,13.11
2018-03-15T09:51:02.952Z,13.27
2018-03-15T09:52:03.208Z,13.46
2018-03-15T09:53:02.943Z,13.67
2018-03-15T09:54:02.912Z,13.76
2018-03-15T09:55:03.164Z,13.87
2018-03-15T09:56:03.164Z,13.89
2018-03-15T09:57:02.877Z,13.46
2018-03-15T09:58:04.409Z,13.18
2018-03-15T09:59:02.850Z,13.12
2018-03-15T10:00:02.836Z,13.03
2018-03-15T10:01:02.543Z,13.2
2018-03-15T10:02:03.104Z,13.27
2018-03-15T10:03:02.815Z,13.2
2018-03-15T10:04:02.506Z,12.92
2018-03-15T10:05:03.303Z,12.92
2018-03-15T10:06:03.599Z,13.04
2018-03-15T10:07:02.471Z,13.17
2018-03-15T10:08:03.049Z,13.18
2018-03-15T10:09:02.846Z,13.29
2018-03-15T10:10:02.440Z,13.32
2018-03-15T10:11:02.972Z,13.3
2018-03-15T10:12:02.968Z,13.36
2018-03-15T10:13:02.400Z,13.58
2018-03-15T10:14:02.388Z,13.71
2018-03-15T10:15:02.650Z,13.52
2018-03-15T10:16:02.919Z,13.33
2018-03-15T10:17:02.626Z,13.46
2018-03-15T10:18:02.618Z,13.61
2018-03-15T10:19:02.639Z,13.87
2018-03-15T10:20:02.318Z,13.84
2018-03-15T10:21:02.580Z,13.74
2018-03-15T10:22:02.588Z,13.79
2018-03-15T10:23:02.857Z,13.8
2018-03-15T10:24:02.883Z,13.62
2018-03-15T10:25:13.607Z,13.71
2018-03-15T10:26:02.533Z,13.74
2018-03-15T10:27:02.838Z,13.79
2018-03-15T10:28:02.513Z,13.95
2018-03-15T10:29:02.496Z,14.21
2018-03-15T10:30:02.586Z,14.35
2018-03-15T10:31:02.582Z,14.5
2018-03-15T10:32:02.503Z,14.49
2018-03-15T10:33:02.455Z,14.5
2018-03-15T10:34:02.162Z,14.49
2018-03-15T10:35:03.234Z,14.42
2018-03-15T10:36:02.437Z,14.49
2018-03-15T10:37:02.706Z,14.72
2018-03-15T10:38:02.119Z,14.71
2018-03-15T10:39:02.105Z,14.75
2018-03-15T10:40:02.643Z,14.98
2018-03-15T10:41:02.365Z,15.13
2018-03-15T10:42:02.073Z,15.31
2018-03-15T10:43:03.177Z,15.48
2018-03-15T10:44:02.340Z,15.56
2018-03-15T10:45:02.047Z,15.49
2018-03-15T10:46:02.352Z,15.33
2018-03-15T10:47:02.319Z,15.21
2018-03-15T10:48:02.420Z,15.35
2018-03-15T10:49:02.600Z,15.33
2018-03-15T10:50:02.701Z,15.48
2018-03-15T10:51:02.536Z,15.36
2018-03-15T10:52:02.540Z,15.33
2018-03-15T10:53:02.568Z,15.54
2018-03-15T10:54:01.963Z,15.49
2018-03-15T10:55:02.521Z,15.7
2018-03-15T10:56:01.958Z,15.63
2018-03-15T10:57:02.239Z,15.56
2018-03-15T10:58:01.930Z,15.48
2018-03-15T10:59:01.925Z,15.42
2018-03-15T11:00:01.922Z,15.11
2018-03-15T11:01:02.476Z,14.9
2018-03-15T11:02:02.199Z,14.78
2018-03-15T11:03:01.883Z,14.75
2018-03-15T11:04:02.183Z,14.83
2018-03-15T11:05:02.157Z,14.81
2018-03-15T11:06:02.901Z,14.68
2018-03-15T11:07:02.146Z,14.71
2018-03-15T11:08:02.128Z,14.68
2018-03-15T11:09:01.836Z,14.46
2018-03-15T11:10:01.828Z,14.54
2018-03-15T11:11:02.108Z,14.56
2018-03-15T11:12:01.812Z,14.75
2018-03-15T11:13:01.801Z,14.93
2018-03-15T11:14:01.797Z,15.2
2018-03-15T11:15:01.789Z,15.51
2018-03-15T11:16:02.343Z,15.79
2018-03-15T11:17:02.327Z,16.14
2018-03-15T11:18:02.362Z,16.31
2018-03-15T11:19:01.757Z,16.31
2018-03-15T11:20:02.047Z,16.25
2018-03-15T11:21:02.553Z,16.15
2018-03-15T11:22:02.007Z,15.88
2018-03-15T11:23:02.306Z,16.04
2018-03-15T11:24:02.623Z,16.15
2018-03-15T11:25:01.989Z,16.11
2018-03-15T11:26:02.002Z,16.37
2018-03-15T11:27:01.690Z,16.49
2018-03-15T11:28:02.244Z,16.52
2018-03-15T11:29:02.671Z,16.73
2018-03-15T11:30:02.282Z,16.99
2018-03-15T11:31:01.674Z,17.06
2018-03-15T11:32:01.663Z,17.03
2018-03-15T11:33:01.944Z,16.49
2018-03-15T11:34:01.648Z,16.35
2018-03-15T11:35:01.639Z,16.34
2018-03-15T11:36:01.640Z,16.49
2018-03-15T11:37:01.634Z,16.26
2018-03-15T11:38:02.273Z,15.94
2018-03-15T11:39:01.904Z,15.93
2018-03-15T11:40:02.197Z,16.16
2018-03-15T11:41:01.615Z,16.16
2018-03-15T11:42:02.208Z,16.45
2018-03-15T11:43:01.896Z,16.4
2018-03-15T11:44:01.872Z,16.49
2018-03-15T11:45:02.598Z,16.55
2018-03-15T11:46:01.862Z,16.62
2018-03-15T11:47:01.784Z,16.77
2018-03-15T11:48:02.199Z,16.68
2018-03-15T11:49:02.156Z,16.65
2018-03-15T11:50:01.846Z,16.59
2018-03-15T11:51:02.211Z,16.75
2018-03-15T11:52:02.748Z,16.65
2018-03-15T11:53:01.559Z,16.89
2018-03-15T11:54:01.834Z,17
2018-03-15T11:55:01.844Z,16.95
2018-03-15T11:56:02.119Z,16.89
2018-03-15T11:57:02.110Z,16.83
2018-03-15T11:58:01.531Z,16.98
2018-03-15T11:59:01.835Z,17.11
2018-03-15T12:00:03.684Z,17.29
2018-03-15T12:01:01.789Z,17.38
2018-03-15T12:02:01.511Z,17.5
2018-03-15T12:03:01.505Z,17.54
2018-03-15T12:04:01.503Z,17.54
2018-03-15T12:05:01.501Z,17.73
2018-03-15T12:06:01.773Z,17.87
2018-03-15T12:07:01.491Z,18.02
2018-03-15T12:08:01.484Z,18.24
2018-03-15T12:09:01.771Z,18.4
2018-03-15T12:10:01.774Z,18.57
2018-03-15T12:11:01.760Z,18.67
2018-03-15T12:12:02.051Z,18.59
2018-03-15T12:13:02.045Z,18.25
2018-03-15T12:14:01.739Z,17.36
2018-03-15T12:15:02.695Z,17.26
2018-03-15T12:16:01.719Z,17.38
2018-03-15T12:17:01.716Z,17.38
2018-03-15T12:18:01.981Z,17.59
2018-03-15T12:19:01.709Z,17.62
2018-03-15T12:20:01.973Z,17.66
2018-03-15T12:21:01.436Z,17.89
2018-03-15T12:22:01.966Z,18.12
2018-03-15T12:23:01.698Z,18.24
2018-03-15T12:24:01.431Z,18.22
2018-03-15T12:25:01.430Z,18.34
2018-03-15T12:26:02.005Z,18.61
2018-03-15T12:27:01.685Z,18.82
2018-03-15T12:28:01.681Z,18.82
2018-03-15T12:29:01.408Z,18.83
2018-03-15T12:30:01.669Z,18.62
2018-03-15T12:31:01.667Z,18.77
2018-03-15T12:32:01.935Z,18.84
2018-03-15T12:33:01.713Z,18.54
2018-03-15T12:34:01.660Z,18.28
2018-03-15T12:35:01.654Z,17.59
2018-03-15T12:36:01.916Z,17.55
2018-03-15T12:37:01.913Z,17.57
2018-03-15T12:38:01.380Z,17.59
2018-03-15T12:39:01.690Z,17.76
2018-03-15T12:40:01.634Z,17.69
2018-03-15T12:41:01.628Z,17.82
2018-03-15T12:42:01.365Z,17.87
2018-03-15T12:43:01.890Z,18.03
2018-03-15T12:44:01.666Z,18.13
2018-03-15T12:45:01.881Z,18.15
2018-03-15T12:46:01.883Z,18.12
2018-03-15T12:47:01.342Z,17.92
2018-03-15T12:48:01.867Z,17.78
2018-03-15T12:49:01.339Z,17.63
2018-03-15T12:50:01.862Z,17.66
2018-03-15T12:51:01.588Z,17.73
2018-03-15T12:52:01.849Z,17.81
2018-03-15T12:53:01.315Z,17.78
2018-03-15T12:54:01.583Z,17.82
2018-03-15T12:55:01.838Z,17.66
2018-03-15T12:56:01.564Z,17.66
2018-03-15T12:57:01.834Z,17.43
2018-03-15T12:58:01.557Z,17.29
2018-03-15T12:59:01.819Z,17.28
2018-03-15T13:00:01.555Z,17.41
2018-03-15T13:01:01.547Z,17.28
2018-03-15T13:02:01.807Z,17.28
2018-03-15T13:03:01.531Z,17.4
2018-03-15T13:04:01.263Z,17.38
2018-03-15T13:05:01.795Z,17.22
2018-03-15T13:06:01.782Z,17.15
2018-03-15T13:07:01.783Z,17.22
2018-03-15T13:08:01.506Z,17.25
2018-03-15T13:09:01.769Z,17.35
2018-03-15T13:10:01.492Z,17.41
2018-03-15T13:11:01.755Z,17.18